createdAt,value
2022-08-16T00:01:21.681Z,1.40
2022-08-16T00:03:55.185Z,1.25
2022-08-16T00:06:26.792Z,1.32
2022-08-16T00:08:58.210Z,2.15
2022-08-16T00:11:30.206Z,1.60
2022-08-16T00:14:02.127Z,1.65
2022-08-16T00:17:05.923Z,1.65
2022-08-16T00:19:08.164Z,1.77
2022-08-16T00:21:40.012Z,1.75
2022-08-16T00:24:12.230Z,1.60
2022-08-16T00:26:45.418Z,1.95
2022-08-16T00:29:18.267Z,1.80
2022-08-16T00:31:59.743Z,1.52
2022-08-16T00:34:43.999Z,1.87
2022-08-16T00:36:58.677Z,1.45
2022-08-16T00:39:31.808Z,1.90
2022-08-16T00:42:03.209Z,1.22
2022-08-16T00:44:36.310Z,1.37
2022-08-16T00:47:10.689Z,1.50
2022-08-16T00:49:44.671Z,2.50
2022-08-16T00:52:29.564Z,1.75
2022-08-16T00:54:48.464Z,1.55
2022-08-16T00:57:20.106Z,1.72
2022-08-16T00:59:58.951Z,1.62
2022-08-16T01:02:31.352Z,1.77
2022-08-16T01:05:09.265Z,1.52
2022-08-16T01:07:50.783Z,1.50
2022-08-16T01:10:16.153Z,1.80
2022-08-16T01:12:40.532Z,2.00
2022-08-16T01:15:14.693Z,1.77
2022-08-16T01:17:48.134Z,2.02
2022-08-16T01:20:30.608Z,1.92
2022-08-16T01:23:00.564Z,1.57
2022-08-16T01:25:36.332Z,2.25
2022-08-16T01:28:11.213Z,1.92
2022-08-16T01:30:49.687Z,1.67
2022-08-16T01:33:22.433Z,1.60
2022-08-16T01:35:58.289Z,1.40
2022-08-16T01:38:33.222Z,2.15
2022-08-16T01:41:07.940Z,1.85
2022-08-16T01:43:42.678Z,2.17
2022-08-16T01:46:37.684Z,2.55
2022-08-16T01:48:58.149Z,3.02
2022-08-16T01:51:30.773Z,3.20
2022-08-16T01:54:04.053Z,2.37
2022-08-16T01:56:36.632Z,2.67
2022-08-16T01:59:16.012Z,3.00
2022-08-16T02:01:49.785Z,3.10
2022-08-16T02:04:49.709Z,3.58
2022-08-16T02:06:52.940Z,2.25
2022-08-16T02:09:26.597Z,2.80
2022-08-16T02:12:50.125Z,3.02
2022-08-16T02:14:35.106Z,3.12
2022-08-16T02:17:09.040Z,2.90
2022-08-16T02:19:59.481Z,2.62
2022-08-16T02:22:34.287Z,2.40
2022-08-16T02:24:53.429Z,2.33
2022-08-16T02:27:25.710Z,2.77
2022-08-16T02:30:05.510Z,2.80
2022-08-16T02:32:49.979Z,2.60
2022-08-16T02:35:03.805Z,3.60
2022-08-16T02:37:51.340Z,3.00
2022-08-16T02:40:11.851Z,3.10
2022-08-16T02:42:43.400Z,4.83
2022-08-16T02:45:16.941Z,2.58
2022-08-16T02:48:01.629Z,3.42
2022-08-16T02:50:54.375Z,2.90
2022-08-16T02:52:55.970Z,2.95
2022-08-16T02:55:40.916Z,3.05
2022-08-16T02:58:01.265Z,3.40
2022-08-16T03:00:34.987Z,2.30
2022-08-16T03:03:10.566Z,2.17
2022-08-16T03:05:39.870Z,2.50
2022-08-16T03:08:51.836Z,2.55
2022-08-16T03:10:47.900Z,3.52
2022-08-16T03:13:20.026Z,4.37
2022-08-16T03:15:51.569Z,2.90
2022-08-16T03:18:34.563Z,2.42
2022-08-16T03:20:56.461Z,2.27
2022-08-16T03:23:27.913Z,3.25
2022-08-16T03:26:01.720Z,2.98
2022-08-16T03:28:33.952Z,2.40
2022-08-16T03:31:07.175Z,2.65
2022-08-16T03:33:39.172Z,2.40
2022-08-16T03:36:30.203Z,3.00
2022-08-16T03:38:44.655Z,2.15
2022-08-16T03:41:25.745Z,3.40
2022-08-16T03:43:51.241Z,2.80
2022-08-16T03:46:45.153Z,2.77
2022-08-16T03:48:56.741Z,2.67
2022-08-16T03:51:28.421Z,2.52
2022-08-16T03:54:01.325Z,2.87
2022-08-16T03:56:32.895Z,2.85
2022-08-16T03:59:04.941Z,3.70
2022-08-16T04:01:36.920Z,3.50
2022-08-16T04:04:08.095Z,3.80
2022-08-16T04:06:40.234Z,3.95
2022-08-16T04:09:12.695Z,3.67
2022-08-16T04:11:44.097Z,3.62
2022-08-16T04:14:32.495Z,3.50
2022-08-16T04:16:48.892Z,3.60
2022-08-16T04:19:23.677Z,3.60
2022-08-16T04:21:56.854Z,3.83
2022-08-16T04:24:29.002Z,3.62
2022-08-16T04:27:01.295Z,3.50
2022-08-16T04:29:43.923Z,4.00
2022-08-16T04:32:07.609Z,3.70
2022-08-16T04:34:40.242Z,4.22
2022-08-16T04:37:11.756Z,4.15
2022-08-16T04:39:46.609Z,4.30
2022-08-16T04:42:17.926Z,4.17
2022-08-16T04:44:54.097Z,3.72
2022-08-16T04:47:24.287Z,3.90
2022-08-16T04:49:56.278Z,4.33
2022-08-16T04:52:35.148Z,3.87
2022-08-16T04:55:03.447Z,4.28
2022-08-16T04:57:35.309Z,4.17
2022-08-16T05:00:32.591Z,4.70
2022-08-16T05:02:46.241Z,4.70
2022-08-16T05:05:18.097Z,4.67
2022-08-16T05:07:57.871Z,4.20
2022-08-16T05:10:23.571Z,4.42
2022-08-16T05:12:55.062Z,3.90
2022-08-16T05:15:28.330Z,3.58
2022-08-16T05:17:59.844Z,4.05
2022-08-16T05:20:38.774Z,3.75
2022-08-16T05:23:06.403Z,4.15
2022-08-16T05:25:47.872Z,3.80
2022-08-16T05:28:11.836Z,3.62
2022-08-16T05:30:43.517Z,4.25
2022-08-16T05:33:16.696Z,3.77
2022-08-16T05:35:55.199Z,3.00
2022-08-16T05:38:33.095Z,3.35
2022-08-16T05:41:00.510Z,3.05
2022-08-16T05:43:43.603Z,2.60
2022-08-16T05:46:30.574Z,2.62
2022-08-16T05:48:41.513Z,2.22
2022-08-16T05:51:13.088Z,2.42
2022-08-16T05:53:46.097Z,2.37
2022-08-16T05:56:19.259Z,2.33
2022-08-16T05:58:50.909Z,2.22
2022-08-16T06:01:22.379Z,2.33
2022-08-16T06:03:53.749Z,1.87
2022-08-16T06:06:27.962Z,2.20
2022-08-16T06:09:00.090Z,2.10
2022-08-16T06:11:32.106Z,1.95
2022-08-16T06:14:03.775Z,2.42
2022-08-16T06:16:36.997Z,2.52
2022-08-16T06:19:08.670Z,2.55
2022-08-16T06:21:40.453Z,2.20
2022-08-16T06:24:54.955Z,4.92
2022-08-16T06:26:46.028Z,2.98
2022-08-16T06:29:17.908Z,2.40
2022-08-16T06:31:50.509Z,1.67
2022-08-16T06:34:54.980Z,1.62
2022-08-16T06:36:59.578Z,1.80
2022-08-16T06:39:31.481Z,1.55
2022-08-16T06:42:05.006Z,2.20
2022-08-16T06:44:38.121Z,2.35
2022-08-16T06:47:13.004Z,2.47
2022-08-16T06:49:52.914Z,2.30
2022-08-16T06:52:57.736Z,2.20
2022-08-16T06:54:52.348Z,1.92
2022-08-16T06:57:23.632Z,1.98
2022-08-16T06:59:58.433Z,2.10
2022-08-16T07:02:33.314Z,1.75
2022-08-16T07:05:01.977Z,2.12
2022-08-16T07:07:34.566Z,1.77
2022-08-16T07:10:09.010Z,2.25
2022-08-16T07:12:47.512Z,2.00
2022-08-16T07:15:17.059Z,1.90
2022-08-16T07:17:49.516Z,1.87
2022-08-16T07:20:35.595Z,2.33
2022-08-16T07:22:59.027Z,2.30
2022-08-16T07:25:29.603Z,2.58
2022-08-16T07:28:01.316Z,2.30
2022-08-16T07:30:46.101Z,2.33
2022-08-16T07:33:07.799Z,2.20
2022-08-16T07:35:44.590Z,2.15
2022-08-16T07:38:12.558Z,2.25
2022-08-16T07:41:01.911Z,2.22
2022-08-16T07:43:18.730Z,2.65
2022-08-16T07:45:53.186Z,2.33
2022-08-16T07:48:24.834Z,2.12
2022-08-16T07:50:59.576Z,3.12
2022-08-16T07:53:32.469Z,3.00
2022-08-16T07:56:04.639Z,3.02
2022-08-16T07:58:37.014Z,2.83
2022-08-16T08:01:10.600Z,2.40
2022-08-16T08:03:48.952Z,2.40
2022-08-16T08:06:18.252Z,2.70
2022-08-16T08:08:52.650Z,3.10
2022-08-16T08:11:24.271Z,3.50
2022-08-16T08:14:03.068Z,3.55
2022-08-16T08:16:35.715Z,2.80
2022-08-16T08:19:09.962Z,4.20
2022-08-16T08:21:58.951Z,2.40
2022-08-16T08:24:15.744Z,2.85
2022-08-16T08:26:50.026Z,3.05
2022-08-16T08:29:22.945Z,3.12
2022-08-16T08:31:55.077Z,3.80
2022-08-16T08:34:27.630Z,4.22
2022-08-16T08:36:59.734Z,3.17
2022-08-16T08:39:32.149Z,2.98
2022-08-16T08:42:05.248Z,2.62
2022-08-16T08:44:37.665Z,3.37
2022-08-16T08:47:11.565Z,4.10
2022-08-16T08:49:50.630Z,3.02
2022-08-16T08:52:34.315Z,2.80
2022-08-16T08:54:50.383Z,3.70
2022-08-16T08:57:22.856Z,3.22
2022-08-16T08:59:55.693Z,3.47
2022-08-16T09:02:28.446Z,3.27
2022-08-16T09:05:00.004Z,6.00
2022-08-16T09:07:31.437Z,3.40
2022-08-16T09:10:06.753Z,3.30
2022-08-16T09:12:38.529Z,3.92
2022-08-16T09:15:13.737Z,2.90
2022-08-16T09:17:49.060Z,3.10
2022-08-16T09:20:19.065Z,2.70
2022-08-16T09:22:52.628Z,3.27
2022-08-16T09:25:26.033Z,2.90
2022-08-16T09:28:02.347Z,3.10
2022-08-16T09:30:36.439Z,3.10
2022-08-16T09:33:08.460Z,3.15
2022-08-16T09:35:42.563Z,3.15
2022-08-16T09:38:31.291Z,3.10
2022-08-16T09:40:49.078Z,2.72
2022-08-16T09:43:57.935Z,2.85
2022-08-16T09:45:56.522Z,2.80
2022-08-16T09:48:44.456Z,3.22
2022-08-16T09:51:01.927Z,3.40
2022-08-16T09:53:35.121Z,3.55
2022-08-16T09:56:12.451Z,3.00
2022-08-16T09:59:05.797Z,3.37
2022-08-16T10:01:17.182Z,3.02
2022-08-16T10:04:01.874Z,3.22
2022-08-16T10:06:25.401Z,3.22
2022-08-16T10:09:05.440Z,3.52
2022-08-16T10:11:50.447Z,3.27
2022-08-16T10:14:24.928Z,3.10
2022-08-16T10:16:59.682Z,2.75
2022-08-16T10:19:31.857Z,3.30
2022-08-16T10:22:05.161Z,3.35
2022-08-16T10:24:36.269Z,3.15
2022-08-16T10:27:25.434Z,2.83
2022-08-16T10:30:00.979Z,3.20
2022-08-16T10:32:20.981Z,2.65
2022-08-16T10:34:51.366Z,4.62
2022-08-16T10:37:32.202Z,3.15
2022-08-16T10:39:56.407Z,2.83
2022-08-16T10:42:27.894Z,3.15
2022-08-16T10:44:59.501Z,2.98
2022-08-16T10:47:38.133Z,2.58
2022-08-16T10:50:05.366Z,2.60
2022-08-16T10:57:44.530Z,2.67
2022-08-16T11:00:20.857Z,1.82
2022-08-16T11:03:00.687Z,3.02
2022-08-16T11:05:26.637Z,2.35
2022-08-16T11:07:59.241Z,2.20
2022-08-16T11:15:47.941Z,2.00
2022-08-16T11:18:47.877Z,2.20
2022-08-16T11:20:50.578Z,2.22
2022-08-16T11:23:22.280Z,2.37
2022-08-16T11:26:07.579Z,1.90
2022-08-16T11:31:01.107Z,2.17
2022-08-16T11:36:22.457Z,2.92
2022-08-16T11:38:52.048Z,2.95
2022-08-16T11:41:12.774Z,1.72
2022-08-16T11:43:44.831Z,2.10
2022-08-16T11:46:43.053Z,1.80
2022-08-16T11:48:51.727Z,2.35
2022-08-16T11:51:23.177Z,3.47
2022-08-16T11:53:54.631Z,1.67
2022-08-16T11:56:29.948Z,1.92
2022-08-16T11:58:59.355Z,2.00
2022-08-16T12:01:44.408Z,1.95
2022-08-16T12:04:04.810Z,2.15
2022-08-16T12:06:36.238Z,2.37
2022-08-16T12:09:09.190Z,2.17
2022-08-16T12:11:41.700Z,2.22
2022-08-16T12:14:14.881Z,2.20
2022-08-16T12:16:48.898Z,2.10
2022-08-16T12:19:20.790Z,2.58
2022-08-16T12:21:58.932Z,2.60
2022-08-16T12:24:27.298Z,2.52
2022-08-16T12:26:59.993Z,2.40
2022-08-16T12:29:31.862Z,2.45
2022-08-16T12:32:35.595Z,2.62
2022-08-16T12:34:36.963Z,1.90
2022-08-16T12:37:11.807Z,2.50
2022-08-16T12:39:50.753Z,2.77
2022-08-16T12:42:17.123Z,2.00
2022-08-16T12:44:49.169Z,2.80
2022-08-16T12:48:04.882Z,2.27
2022-08-16T12:50:25.561Z,2.02
2022-08-16T12:52:58.969Z,2.62
2022-08-16T12:55:33.372Z,1.87
2022-08-16T12:58:06.020Z,2.08
2022-08-16T13:00:39.143Z,2.00
2022-08-16T13:03:13.290Z,1.95
2022-08-16T13:05:53.515Z,2.65
2022-08-16T13:08:21.701Z,1.77
2022-08-16T13:10:55.206Z,1.85
2022-08-16T13:13:29.392Z,2.10
2022-08-16T13:16:10.697Z,2.08
2022-08-16T13:18:36.487Z,1.80
2022-08-16T13:21:10.462Z,2.83
2022-08-16T13:23:43.543Z,4.03
2022-08-16T13:26:17.796Z,2.22
2022-08-16T13:28:48.274Z,2.67
2022-08-16T13:31:20.215Z,2.15
2022-08-16T13:33:54.521Z,2.80
2022-08-16T13:36:47.961Z,1.98
2022-08-16T13:38:58.946Z,2.12
2022-08-16T13:41:30.804Z,1.90
2022-08-16T13:44:04.167Z,1.82
2022-08-16T13:46:36.768Z,1.55
2022-08-16T13:49:07.835Z,1.60
2022-08-16T13:51:39.783Z,1.85
2022-08-16T13:54:12.241Z,1.87
2022-08-16T13:56:43.740Z,1.30
2022-08-16T13:59:20.447Z,1.25
2022-08-16T14:01:55.045Z,1.60
2022-08-16T14:04:27.351Z,1.77
2022-08-16T14:07:00.260Z,1.35
2022-08-16T14:09:33.684Z,1.42
2022-08-16T14:12:17.517Z,2.02
2022-08-16T14:14:40.987Z,1.90
2022-08-16T14:17:13.720Z,1.85
2022-08-16T14:19:46.263Z,1.57
2022-08-16T14:22:31.400Z,1.50
2022-08-16T14:24:55.731Z,1.50
2022-08-16T14:27:30.663Z,1.70
2022-08-16T14:30:02.500Z,1.77
2022-08-16T14:32:34.753Z,2.27
2022-08-16T14:35:11.398Z,1.67
2022-08-16T14:37:43.390Z,2.17
2022-08-16T14:40:17.911Z,1.32
2022-08-16T14:42:52.957Z,1.60
2022-08-16T14:45:28.252Z,1.60
2022-08-16T14:48:01.242Z,1.75
2022-08-16T14:50:33.735Z,2.90
2022-08-16T14:53:08.169Z,2.35
2022-08-16T14:55:41.136Z,2.17
2022-08-16T14:58:19.497Z,2.25
2022-08-16T15:00:45.978Z,1.92
2022-08-16T15:03:17.589Z,2.45
2022-08-16T15:05:49.064Z,2.45
2022-08-16T15:08:36.739Z,2.10
2022-08-16T15:10:55.119Z,2.70
2022-08-16T15:13:26.515Z,2.65
2022-08-16T15:16:02.756Z,2.33
2022-08-16T15:18:33.974Z,2.40
2022-08-16T15:21:08.473Z,2.55
2022-08-16T15:23:41.332Z,1.92
2022-08-16T15:26:29.570Z,2.72
2022-08-16T15:28:46.489Z,2.08
2022-08-16T15:31:18.944Z,1.98
2022-08-16T15:33:56.604Z,1.98
2022-08-16T15:36:25.864Z,2.15
2022-08-16T15:39:05.742Z,2.65
2022-08-16T15:41:54.999Z,2.37
2022-08-16T15:44:30.974Z,3.12
2022-08-16T15:47:03.019Z,2.22
2022-08-16T15:49:45.879Z,2.15
2022-08-16T15:52:15.167Z,2.42
2022-08-16T15:54:53.588Z,2.60
2022-08-16T15:57:22.434Z,2.22
2022-08-16T15:59:59.314Z,1.90
2022-08-16T16:02:31.272Z,2.00
2022-08-16T16:05:04.588Z,2.45
2022-08-16T16:07:36.820Z,2.08
2022-08-16T16:10:12.929Z,2.35
2022-08-16T16:12:53.285Z,2.08
2022-08-16T16:15:22.948Z,3.00
2022-08-16T16:17:54.424Z,2.40
2022-08-16T16:20:28.065Z,2.30
2022-08-16T16:23:02.385Z,3.52
2022-08-16T16:25:35.309Z,1.90
2022-08-16T16:28:12.524Z,2.27
2022-08-16T16:30:44.818Z,2.15
2022-08-16T16:33:15.482Z,2.30
2022-08-16T16:35:48.005Z,2.83
2022-08-16T16:38:21.553Z,2.25
2022-08-16T16:40:54.181Z,2.85
2022-08-16T16:43:31.653Z,3.50
2022-08-16T16:45:59.233Z,3.35
2022-08-16T16:48:35.283Z,2.92
2022-08-16T16:51:09.728Z,2.90
2022-08-16T16:53:42.571Z,2.47
2022-08-16T16:56:19.820Z,2.10
2022-08-16T16:58:57.450Z,2.50
2022-08-16T17:01:41.539Z,2.25
2022-08-16T17:04:19.229Z,2.30
2022-08-16T17:06:43.280Z,2.72
2022-08-16T17:09:16.262Z,2.58
2022-08-16T17:11:48.612Z,2.80
2022-08-16T17:14:32.411Z,2.47
2022-08-16T17:16:54.612Z,2.30
2022-08-16T17:19:31.459Z,3.72
2022-08-16T17:21:59.234Z,2.58
2022-08-16T17:24:39.832Z,2.77
2022-08-16T17:27:04.699Z,3.12
2022-08-16T17:29:42.932Z,3.12
2022-08-16T17:32:33.925Z,2.90
2022-08-16T17:34:50.567Z,2.92
2022-08-16T17:37:22.223Z,2.27
2022-08-16T17:39:59.989Z,2.67
2022-08-16T17:42:27.196Z,2.85
2022-08-16T17:44:59.113Z,3.20
2022-08-16T17:47:30.497Z,2.70
2022-08-16T17:50:02.488Z,2.65
2022-08-16T17:52:34.819Z,3.45
2022-08-16T17:55:14.517Z,3.15
2022-08-16T17:57:47.514Z,2.70
2022-08-16T18:00:20.703Z,3.15
2022-08-16T18:02:53.580Z,3.20
2022-08-16T18:05:26.841Z,2.37
2022-08-16T18:07:58.438Z,2.80
2022-08-16T18:10:33.260Z,3.35
2022-08-16T18:13:03.481Z,4.12
2022-08-16T18:15:35.189Z,3.20
2022-08-16T18:18:10.900Z,2.85
2022-08-16T18:20:59.984Z,3.45
2022-08-16T18:23:31.378Z,2.87
2022-08-16T18:26:04.745Z,4.35
2022-08-16T18:28:38.767Z,2.95
2022-08-16T18:31:10.632Z,2.40
2022-08-16T18:33:43.804Z,2.27
2022-08-16T18:36:21.124Z,2.77
2022-08-16T18:38:49.089Z,2.60
2022-08-16T18:41:22.323Z,2.92
2022-08-16T18:44:23.089Z,3.15
2022-08-16T18:46:27.110Z,2.80
2022-08-16T18:48:58.587Z,3.40
2022-08-16T18:51:30.423Z,3.30
2022-08-16T18:54:02.135Z,3.77
2022-08-16T18:56:55.469Z,4.60
2022-08-16T18:59:07.318Z,3.98
2022-08-16T19:01:38.714Z,5.95
2022-08-16T19:04:56.681Z,4.53
2022-08-16T19:06:43.172Z,2.92
2022-08-16T19:09:14.534Z,2.52
2022-08-16T19:11:45.941Z,3.12
2022-08-16T19:14:18.209Z,3.35
2022-08-16T19:16:49.726Z,4.45
2022-08-16T19:19:22.880Z,3.40
2022-08-16T19:21:55.382Z,3.12
2022-08-16T19:24:29.402Z,3.90
2022-08-16T19:26:59.605Z,2.87
2022-08-16T19:29:32.680Z,2.87
2022-08-16T19:32:04.481Z,3.02
2022-08-16T19:34:35.980Z,3.47
2022-08-16T19:37:07.465Z,3.05
2022-08-16T19:39:39.414Z,3.37
2022-08-16T19:42:17.329Z,3.40
2022-08-16T19:44:50.462Z,3.33
2022-08-16T19:47:23.074Z,2.95
2022-08-16T19:49:54.522Z,3.02
2022-08-16T19:52:28.748Z,2.77
2022-08-16T19:55:04.907Z,3.00
2022-08-16T19:57:38.477Z,2.98
2022-08-16T20:00:14.442Z,2.98
2022-08-16T20:02:51.229Z,2.95
2022-08-16T20:05:25.499Z,3.05
2022-08-16T20:08:02.288Z,4.12
2022-08-16T20:10:31.322Z,2.92
2022-08-16T20:13:03.126Z,3.30
2022-08-16T20:15:35.824Z,3.10
2022-08-16T20:18:22.773Z,3.25
2022-08-16T20:20:41.749Z,3.20
2022-08-16T20:23:24.102Z,2.60
2022-08-16T20:25:49.953Z,3.60
2022-08-16T20:28:39.466Z,4.45
2022-08-16T20:31:01.409Z,4.30
2022-08-16T20:33:32.859Z,3.87
2022-08-16T20:36:15.914Z,3.58
2022-08-16T20:38:44.349Z,3.95
2022-08-16T20:41:15.976Z,4.60
2022-08-16T20:43:48.169Z,6.85
2022-08-16T20:46:19.586Z,3.55
2022-08-16T20:48:50.931Z,3.25
2022-08-16T20:51:22.234Z,3.25
2022-08-16T20:53:58.579Z,2.52
2022-08-16T20:56:30.197Z,3.12
2022-08-16T20:59:02.474Z,3.05
2022-08-16T21:01:45.670Z,2.77
2022-08-16T21:04:07.461Z,2.92
2022-08-16T21:06:40.869Z,3.52
2022-08-16T21:09:12.651Z,2.40
2022-08-16T21:11:44.065Z,2.67
2022-08-16T21:14:15.521Z,3.30
2022-08-16T21:16:46.884Z,3.33
2022-08-16T21:19:18.273Z,3.92
2022-08-16T21:21:50.042Z,3.33
2022-08-16T21:24:21.615Z,3.10
2022-08-16T21:26:56.162Z,2.95
2022-08-16T21:29:43.142Z,3.33
2022-08-16T21:32:12.822Z,3.08
2022-08-16T21:34:45.490Z,3.20
2022-08-16T21:37:16.920Z,2.60
2022-08-16T21:39:48.384Z,3.67
2022-08-16T21:42:19.785Z,3.22
2022-08-16T21:44:51.231Z,3.10
2022-08-16T21:47:22.649Z,2.90
2022-08-16T21:49:54.322Z,4.78
2022-08-16T21:52:27.010Z,2.95
2022-08-16T21:54:59.037Z,3.47
2022-08-16T21:57:35.451Z,2.95
2022-08-16T22:00:09.876Z,3.12
2022-08-16T22:02:42.046Z,3.02
2022-08-16T22:05:13.417Z,3.72
2022-08-16T22:07:46.050Z,3.35
2022-08-16T22:11:05.742Z,3.30
2022-08-16T22:12:51.905Z,4.00
2022-08-16T22:15:25.823Z,4.10
2022-08-16T22:17:59.578Z,3.42
2022-08-16T22:20:31.529Z,3.50
2022-08-16T22:23:11.392Z,4.15
2022-08-16T22:25:47.381Z,4.15
2022-08-16T22:28:20.568Z,3.52
2022-08-16T22:30:52.467Z,4.00
2022-08-16T22:33:26.198Z,4.47
2022-08-16T22:36:00.099Z,4.85
2022-08-16T22:38:54.770Z,4.28
2022-08-16T22:41:06.600Z,4.15
2022-08-16T22:43:37.966Z,3.22
2022-08-16T22:46:09.989Z,3.62
2022-08-16T22:48:41.348Z,3.17
2022-08-16T22:51:13.941Z,3.75
2022-08-16T22:53:45.050Z,3.47
2022-08-16T22:56:17.475Z,3.45
2022-08-16T22:58:49.668Z,3.00
2022-08-16T23:01:23.526Z,3.55
2022-08-16T23:03:55.744Z,3.45
2022-08-16T23:06:27.290Z,3.20
2022-08-16T23:08:58.714Z,3.42
2022-08-16T23:11:30.104Z,3.65
2022-08-16T23:14:01.816Z,5.53
2022-08-16T23:16:35.081Z,3.02
2022-08-16T23:19:09.416Z,2.80
2022-08-16T23:21:44.442Z,2.77
2022-08-16T23:24:17.553Z,3.27
2022-08-16T23:26:49.731Z,5.40
2022-08-16T23:29:26.530Z,3.67
2022-08-16T23:32:00.080Z,4.58
2022-08-16T23:34:31.469Z,3.15
2022-08-16T23:37:02.881Z,3.35
2022-08-16T23:39:36.162Z,3.55
2022-08-16T23:42:15.451Z,3.10
2022-08-16T23:44:58.704Z,3.35
2022-08-16T23:47:21.451Z,3.45
2022-08-16T23:50:02.588Z,2.92
2022-08-16T23:52:40.576Z,3.87
2022-08-16T23:54:59.753Z,2.83
2022-08-16T23:57:31.444Z,3.77
